Time;durP1;ratioP1;P1;durP2;ratioP2;P2;SDS_P1;SDS_P2;PMS_P1;PMS_P2;Temp;Humidity;BMP_temperature;BMP_pressure;BME280_temperature;BME280_humidity;BME280_pressure;Samples;Min_cycle;Max_cycle;Signal;HPM_P1;HPM_P2
2021/08/26 00:05:43;;;;;;;9.87;4.30;;;14.30;99.90;;;;;;5019839;28;20186;-75
2021/08/26 00:06:51;;;;;;;12.83;4.50;;;14.30;99.90;;;;;;5021177;28;20886;-75
2021/08/26 00:09:17;;;;;;;16.83;4.00;;;14.30;99.90;;;;;;5021384;28;20430;-75
2021/08/26 00:11:48;;;;;;;9.30;4.80;;;14.20;99.90;;;;;;5021035;28;20510;-76
2021/08/26 00:14:15;;;;;;;12.50;3.77;;;14.20;99.90;;;;;;5013931;28;20433;-76
2021/08/26 00:16:41;;;;;;;9.03;3.90;;;14.20;99.90;;;;;;5012411;28;20428;-77
2021/08/26 00:19:14;;;;;;;13.27;3.90;;;14.20;99.90;;;;;;5012889;28;20457;-77
2021/08/26 00:21:42;;;;;;;9.37;3.73;;;14.30;99.90;;;;;;5014318;28;20432;-78
2021/08/26 00:24:08;;;;;;;11.67;3.80;;;14.30;99.90;;;;;;5013176;28;20429;-77
2021/08/26 00:26:35;;;;;;;12.67;3.70;;;14.30;99.90;;;;;;5010126;28;20425;-76
2021/08/26 00:29:03;;;;;;;14.50;4.57;;;14.40;99.90;;;;;;5009821;28;20921;-77
2021/08/26 00:31:29;;;;;;;13.37;4.20;;;14.30;99.90;;;;;;5010907;28;20460;-77
2021/08/26 00:33:55;;;;;;;11.37;4.73;;;14.30;99.90;;;;;;5012511;28;20433;-77
2021/08/26 00:36:21;;;;;;;12.37;3.30;;;14.30;99.90;;;;;;5010407;28;20186;-77
2021/08/26 00:38:47;;;;;;;15.37;4.90;;;14.30;99.90;;;;;;5012077;28;20208;-77
2021/08/26 00:41:17;;;;;;;11.10;3.50;;;14.30;99.90;;;;;;5011928;28;20523;-77
2021/08/26 00:43:43;;;;;;;8.87;3.77;;;14.30;99.90;;;;;;5010998;28;20198;-77
2021/08/26 00:46:15;;;;;;;9.17;3.40;;;14.20;99.90;;;;;;5012616;28;20425;-77
2021/08/26 00:48:44;;;;;;;12.43;3.53;;;14.20;99.90;;;;;;5013782;28;20771;-77
2021/08/26 00:51:10;;;;;;;11.93;5.33;;;14.30;99.90;;;;;;5010452;28;20445;-77
2021/08/26 00:53:39;;;;;;;17.90;4.70;;;14.30;99.90;;;;;;5012012;28;20510;-77
2021/08/26 00:56:05;;;;;;;17.93;4.40;;;14.30;99.90;;;;;;5014152;28;20432;-77
2021/08/26 00:58:31;;;;;;;8.50;3.73;;;14.30;99.90;;;;;;5011917;28;20470;-77
2021/08/26 01:01:02;;;;;;;17.00;3.93;;;14.30;99.90;;;;;;5014453;28;20178;-77
2021/08/26 01:03:43;;;;;;;16.63;3.43;;;14.30;99.90;;;;;;5011273;28;20508;-77
2021/08/26 01:06:20;;;;;;;12.33;3.53;;;14.20;99.90;;;;;;5013994;28;20767;-77
2021/08/26 01:08:55;;;;;;;9.70;3.63;;;14.20;99.90;;;;;;5011151;28;20430;-77
2021/08/26 01:11:23;;;;;;;15.40;4.27;;;14.20;99.90;;;;;;5014082;28;20437;-77
2021/08/26 01:13:51;;;;;;;14.33;5.17;;;14.30;99.90;;;;;;5013662;28;20444;-76
2021/08/26 01:16:16;;;;;;;10.13;3.90;;;14.30;99.90;;;;;;5013509;28;20587;-76
2021/08/26 01:18:48;;;;;;;11.70;3.47;;;14.20;99.90;;;;;;5011761;28;20540;-76
2021/08/26 01:21:21;;;;;;;21.90;5.00;;;14.20;99.90;;;;;;5012821;28;20166;-76
2021/08/26 01:23:54;;;;;;;13.80;4.53;;;14.30;99.90;;;;;;5010745;28;20789;-76
2021/08/26 01:26:24;;;;;;;14.10;4.47;;;14.30;99.90;;;;;;5012685;28;20872;-76
2021/08/26 01:28:52;;;;;;;12.43;4.30;;;14.20;99.90;;;;;;5011560;28;20814;-76
2021/08/26 01:31:20;;;;;;;14.63;4.60;;;14.20;99.90;;;;;;5014030;28;20867;-76
2021/08/26 01:33:51;;;;;;;19.10;5.47;;;14.20;99.90;;;;;;5004640;28;20440;-76
2021/08/26 01:36:18;;;;;;;13.67;4.57;;;14.20;99.90;;;;;;5008078;28;20919;-76
2021/08/26 01:38:45;;;;;;;13.00;4.20;;;14.20;99.90;;;;;;5011527;28;20496;-76
2021/08/26 01:41:15;;;;;;;12.67;3.60;;;14.20;99.90;;;;;;5009529;28;20438;-76
2021/08/26 01:43:44;;;;;;;15.83;5.23;;;14.30;99.90;;;;;;5009432;28;20460;-76
2021/08/26 01:46:09;;;;;;;15.40;4.80;;;14.30;99.90;;;;;;5010514;28;20441;-76
2021/08/26 01:48:35;;;;;;;9.87;3.90;;;14.20;99.90;;;;;;5010854;28;20437;-76
2021/08/26 01:51:00;;;;;;;11.20;3.93;;;14.20;99.90;;;;;;5012063;28;20647;-76
2021/08/26 01:53:26;;;;;;;13.90;4.43;;;14.20;99.90;;;;;;5010461;28;20570;-76
2021/08/26 01:55:52;;;;;;;17.13;4.80;;;14.10;99.90;;;;;;5012628;28;20272;-76
2021/08/26 01:58:17;;;;;;;19.60;5.43;;;14.10;99.90;;;;;;5008633;28;20202;-77
2021/08/26 02:00:44;;;;;;;19.93;5.50;;;14.10;99.90;;;;;;5008808;28;20186;-77
2021/08/26 02:03:10;;;;;;;11.37;5.40;;;14.10;99.90;;;;;;5011246;28;20181;-76
2021/08/26 02:05:35;;;;;;;12.07;5.37;;;14.10;99.90;;;;;;5013559;28;20422;-76
2021/08/26 02:08:01;;;;;;;11.10;4.20;;;14.10;99.90;;;;;;5011546;28;20190;-76
2021/08/26 02:10:27;;;;;;;14.20;5.00;;;14.10;99.90;;;;;;5012158;28;20188;-76
2021/08/26 02:12:52;;;;;;;13.63;4.70;;;14.20;99.90;;;;;;5009399;28;20623;-76
2021/08/26 02:15:19;;;;;;;16.53;5.17;;;14.10;99.90;;;;;;5013549;28;20182;-76
2021/08/26 02:17:45;;;;;;;14.63;6.20;;;14.00;99.90;;;;;;5009613;28;20236;-76
2021/08/26 02:20:11;;;;;;;16.20;5.10;;;14.00;99.90;;;;;;5010525;28;20799;-76
2021/08/26 02:22:37;;;;;;;16.07;5.10;;;14.00;99.90;;;;;;5011931;28;20891;-76
2021/08/26 02:25:06;;;;;;;14.43;5.23;;;14.00;99.90;;;;;;5011662;28;20475;-76
2021/08/26 02:27:32;;;;;;;17.13;4.70;;;14.00;99.90;;;;;;5011882;28;20272;-76
2021/08/26 02:29:58;;;;;;;20.97;5.30;;;14.00;99.90;;;;;;5011925;28;20438;-76
2021/08/26 02:32:23;;;;;;;18.97;6.07;;;14.00;99.90;;;;;;5010624;28;20441;-76
2021/08/26 02:34:49;;;;;;;16.73;4.93;;;14.00;99.90;;;;;;5009539;28;20193;-76
2021/08/26 02:37:15;;;;;;;17.10;5.67;;;14.00;99.90;;;;;;5010950;28;20178;-76
2021/08/26 02:39:40;;;;;;;13.83;4.77;;;14.00;99.90;;;;;;5012050;28;20186;-76
2021/08/26 02:42:06;;;;;;;18.07;6.20;;;14.00;99.90;;;;;;5011428;28;20209;-76
2021/08/26 02:44:32;;;;;;;13.70;4.63;;;14.00;99.90;;;;;;5012043;28;20194;-76
2021/08/26 02:46:58;;;;;;;15.67;5.90;;;13.90;99.90;;;;;;5011062;28;20197;-76
2021/08/26 02:49:24;;;;;;;13.47;4.80;;;14.00;99.90;;;;;;5012048;28;20269;-76
2021/08/26 02:51:49;;;;;;;17.50;4.90;;;13.90;99.90;;;;;;5010048;28;20553;-76
2021/08/26 02:54:15;;;;;;;8.20;3.87;;;13.90;99.90;;;;;;5011807;28;20178;-76
2021/08/26 02:56:41;;;;;;;16.43;4.60;;;13.90;99.90;;;;;;5009900;28;20248;-76
2021/08/26 02:59:07;;;;;;;7.23;3.80;;;13.90;99.90;;;;;;5010772;28;20445;-76
2021/08/26 03:01:33;;;;;;;11.70;4.43;;;13.90;99.90;;;;;;5008869;28;20167;-76
2021/08/26 03:03:58;;;;;;;13.67;5.77;;;13.90;99.90;;;;;;5010959;28;20429;-76
2021/08/26 03:06:24;;;;;;;10.20;4.53;;;13.90;99.90;;;;;;5011919;28;20725;-76
2021/08/26 03:08:50;;;;;;;8.80;4.10;;;13.90;99.90;;;;;;5009183;28;20185;-76
2021/08/26 03:11:16;;;;;;;12.53;3.70;;;13.80;99.90;;;;;;5012513;28;20624;-76
2021/08/26 03:13:41;;;;;;;15.60;5.33;;;13.90;99.90;;;;;;5012435;28;20520;-76
2021/08/26 03:16:07;;;;;;;10.57;4.37;;;13.90;99.90;;;;;;5010628;28;20193;-76
2021/08/26 03:18:33;;;;;;;15.47;4.37;;;13.90;99.90;;;;;;5010504;28;20260;-76
2021/08/26 03:20:59;;;;;;;8.73;4.47;;;13.80;99.90;;;;;;5012467;28;20170;-76
2021/08/26 03:23:25;;;;;;;8.80;3.87;;;13.80;99.90;;;;;;5010290;28;20175;-76
2021/08/26 03:25:51;;;;;;;10.43;4.33;;;13.70;99.90;;;;;;5009826;28;20264;-76
2021/08/26 03:28:18;;;;;;;12.70;3.87;;;13.70;99.90;;;;;;5011495;28;20516;-76
2021/08/26 03:30:44;;;;;;;9.47;4.77;;;13.70;99.90;;;;;;5010305;28;20433;-76
2021/08/26 03:33:10;;;;;;;12.20;4.27;;;13.70;99.90;;;;;;5011268;28;20409;-76
2021/08/26 03:35:36;;;;;;;8.60;4.00;;;13.70;99.90;;;;;;5010002;28;20441;-76
2021/08/26 03:38:02;;;;;;;13.90;3.80;;;13.70;99.90;;;;;;5012760;28;20554;-76
2021/08/26 03:40:28;;;;;;;5.00;3.10;;;13.70;99.90;;;;;;5008951;28;20562;-76
2021/08/26 03:42:54;;;;;;;7.43;4.53;;;13.70;99.90;;;;;;5009451;28;20449;-76
2021/08/26 03:45:20;;;;;;;8.40;3.50;;;13.70;99.90;;;;;;5010572;28;20519;-76
2021/08/26 03:47:46;;;;;;;13.63;5.00;;;13.60;99.90;;;;;;5009784;28;20433;-76
2021/08/26 03:50:11;;;;;;;9.03;3.67;;;13.70;99.90;;;;;;5010073;28;20244;-76
2021/08/26 03:52:37;;;;;;;12.57;4.10;;;13.70;99.90;;;;;;5007318;28;20178;-76
2021/08/26 03:55:03;;;;;;;16.03;5.00;;;13.70;99.90;;;;;;5012015;28;20525;-76
2021/08/26 03:57:29;;;;;;;15.40;5.20;;;13.60;99.90;;;;;;5010966;28;20179;-76
2021/08/26 03:59:54;;;;;;;6.00;3.07;;;13.60;99.90;;;;;;5004195;28;20433;-76
2021/08/26 04:02:21;;;;;;;5.87;4.00;;;13.60;99.90;;;;;;5008344;28;20182;-76
2021/08/26 04:04:46;;;;;;;6.00;2.97;;;13.60;99.90;;;;;;5011071;28;20305;-76
2021/08/26 04:07:12;;;;;;;13.20;4.00;;;13.60;99.90;;;;;;5004905;28;20433;-76
2021/08/26 04:09:38;;;;;;;14.77;3.77;;;13.60;99.90;;;;;;5011136;28;20187;-76
2021/08/26 04:12:04;;;;;;;25.47;5.43;;;13.60;99.90;;;;;;5010671;28;20441;-76
2021/08/26 04:14:29;;;;;;;13.77;5.20;;;13.60;99.90;;;;;;5012363;28;20190;-76
2021/08/26 04:16:56;;;;;;;13.30;4.57;;;13.60;99.90;;;;;;5007053;28;20194;-76
2021/08/26 04:19:22;;;;;;;6.10;4.43;;;13.70;99.90;;;;;;5007792;28;20520;-76
2021/08/26 04:21:47;;;;;;;27.33;6.27;;;13.70;99.90;;;;;;5009912;28;20248;-76
2021/08/26 04:24:13;;;;;;;9.60;4.40;;;13.70;99.90;;;;;;5008442;28;20301;-76
2021/08/26 04:26:38;;;;;;;12.33;4.70;;;13.70;99.90;;;;;;5011169;28;20182;-76
2021/08/26 04:29:04;;;;;;;16.10;5.90;;;13.70;99.90;;;;;;5008832;28;20273;-76
2021/08/26 04:31:30;;;;;;;14.90;4.67;;;13.70;99.90;;;;;;5009665;28;20221;-76
2021/08/26 04:33:55;;;;;;;25.13;6.00;;;13.70;99.90;;;;;;5009528;28;20252;-76
2021/08/26 04:36:21;;;;;;;12.80;5.40;;;13.70;99.90;;;;;;5008078;28;20201;-76
2021/08/26 04:38:47;;;;;;;15.07;4.60;;;13.70;99.90;;;;;;4999530;28;20746;-76
2021/08/26 04:41:12;;;;;;;12.93;5.63;;;13.70;99.90;;;;;;5008470;28;20229;-76
2021/08/26 04:43:38;;;;;;;19.53;6.10;;;13.70;99.90;;;;;;5010981;28;20209;-76
2021/08/26 04:46:04;;;;;;;16.77;5.90;;;13.70;99.90;;;;;;5007985;28;20563;-76
2021/08/26 04:48:29;;;;;;;10.10;4.83;;;13.70;99.90;;;;;;5007080;28;20277;-76
2021/08/26 04:50:55;;;;;;;7.90;3.73;;;13.70;99.90;;;;;;5006041;28;20179;-76
2021/08/26 04:53:20;;;;;;;26.47;5.67;;;13.70;99.90;;;;;;5006221;28;20190;-76
2021/08/26 04:55:46;;;;;;;12.97;4.90;;;13.70;99.90;;;;;;5007093;28;20175;-76
2021/08/26 04:58:12;;;;;;;10.40;4.47;;;13.70;99.90;;;;;;5011479;28;20209;-76
2021/08/26 05:00:37;;;;;;;15.13;6.20;;;13.70;99.90;;;;;;5012666;28;20183;-76
2021/08/26 05:03:04;;;;;;;11.73;4.60;;;13.80;99.90;;;;;;5012063;28;20717;-75
2021/08/26 05:05:29;;;;;;;12.73;5.37;;;13.70;99.90;;;;;;5015046;28;20198;-75
2021/08/26 05:07:55;;;;;;;13.60;4.10;;;13.80;99.90;;;;;;5012675;28;20934;-75
2021/08/26 05:10:21;;;;;;;13.27;4.97;;;13.80;99.90;;;;;;5012406;28;20438;-75
2021/08/26 05:12:46;;;;;;;17.10;6.47;;;13.80;99.90;;;;;;5012258;28;20187;-75
2021/08/26 05:15:12;;;;;;;12.03;4.97;;;13.80;99.90;;;;;;5013449;28;20186;-75
2021/08/26 05:17:38;;;;;;;8.83;4.30;;;13.80;99.90;;;;;;5012753;28;20205;-75
2021/08/26 05:20:05;;;;;;;14.67;4.73;;;13.90;99.90;;;;;;5013019;28;20174;-75
2021/08/26 05:22:31;;;;;;;10.67;5.00;;;13.80;99.90;;;;;;5011087;28;20429;-75
2021/08/26 05:24:58;;;;;;;14.70;6.87;;;13.90;99.90;;;;;;5014468;28;20842;-75
2021/08/26 05:27:23;;;;;;;13.63;4.60;;;13.90;99.90;;;;;;5011578;28;20433;-75
2021/08/26 05:29:49;;;;;;;11.23;4.20;;;13.90;99.90;;;;;;5012537;28;20441;-75
2021/08/26 05:32:15;;;;;;;9.07;4.20;;;13.90;99.90;;;;;;5027526;28;20245;-75
2021/08/26 05:34:42;;;;;;;7.93;4.30;;;13.90;99.90;;;;;;5014577;28;20604;-75
2021/08/26 05:37:09;;;;;;;17.80;5.20;;;13.90;99.90;;;;;;5013099;28;20174;-75
2021/08/26 05:39:35;;;;;;;18.00;5.70;;;13.90;99.90;;;;;;5012326;28;20457;-75
2021/08/26 05:42:01;;;;;;;17.20;5.00;;;13.90;99.90;;;;;;5012213;28;20443;-75
2021/08/26 05:44:26;;;;;;;10.37;4.80;;;14.00;99.90;;;;;;5014076;28;20762;-75
2021/08/26 05:46:52;;;;;;;13.37;5.07;;;14.00;99.90;;;;;;5012858;28;20270;-75
2021/08/26 05:49:18;;;;;;;18.07;5.77;;;14.10;99.90;;;;;;5012755;28;20193;-75
2021/08/26 05:51:44;;;;;;;14.13;4.70;;;14.20;99.90;;;;;;5010837;28;20186;-75
2021/08/26 05:54:09;;;;;;;12.23;4.97;;;14.10;99.90;;;;;;5010419;28;20438;-75
2021/08/26 05:56:35;;;;;;;12.17;4.03;;;14.20;99.90;;;;;;5012351;28;20213;-75
2021/08/26 05:59:01;;;;;;;8.50;4.00;;;14.20;99.90;;;;;;5010977;28;20221;-75
2021/08/26 06:01:27;;;;;;;22.00;5.20;;;14.20;99.90;;;;;;5010939;28;20223;-75
2021/08/26 06:03:53;;;;;;;12.10;4.77;;;14.30;99.90;;;;;;5009839;28;20175;-75
2021/08/26 06:06:19;;;;;;;7.67;3.17;;;14.30;99.90;;;;;;5013014;28;20498;-75
2021/08/26 06:08:45;;;;;;;18.27;5.53;;;14.30;99.90;;;;;;5011695;28;20433;-75
2021/08/26 06:11:11;;;;;;;10.13;4.90;;;14.30;99.90;;;;;;5010353;28;20429;-75
2021/08/26 06:13:36;;;;;;;7.50;3.50;;;14.30;99.90;;;;;;5012938;28;20189;-75
2021/08/26 06:16:02;;;;;;;6.73;3.80;;;14.30;99.90;;;;;;5011766;28;20186;-75
2021/08/26 06:18:28;;;;;;;10.60;4.43;;;14.30;99.90;;;;;;5012405;28;20202;-75
2021/08/26 06:20:53;;;;;;;12.97;4.47;;;14.40;99.90;;;;;;5014948;28;20182;-75
2021/08/26 06:23:19;;;;;;;7.33;3.83;;;14.40;99.90;;;;;;5011014;28;20185;-75
2021/08/26 06:25:45;;;;;;;16.60;4.60;;;14.50;99.90;;;;;;5007602;28;20182;-75
2021/08/26 06:28:10;;;;;;;14.40;3.60;;;14.50;99.90;;;;;;5010722;28;20187;-75
2021/08/26 06:30:36;;;;;;;11.23;4.20;;;14.60;99.90;;;;;;5012505;28;20268;-75
2021/08/26 06:33:02;;;;;;;9.40;4.10;;;14.60;99.90;;;;;;5012431;28;20178;-75
2021/08/26 06:35:28;;;;;;;9.97;4.73;;;14.60;99.90;;;;;;5011709;28;20236;-75
2021/08/26 06:37:54;;;;;;;12.13;4.77;;;14.60;99.90;;;;;;5006955;28;20465;-75
2021/08/26 06:40:19;;;;;;;8.53;3.60;;;14.60;99.90;;;;;;5010171;28;20196;-74
2021/08/26 06:42:45;;;;;;;10.80;3.87;;;14.60;99.90;;;;;;5005829;28;20752;-74
2021/08/26 06:45:11;;;;;;;9.93;4.23;;;14.60;99.90;;;;;;5008898;28;20171;-75
2021/08/26 06:47:37;;;;;;;8.67;3.50;;;14.70;99.90;;;;;;5006703;28;20209;-75
2021/08/26 06:50:03;;;;;;;7.83;4.13;;;14.70;99.90;;;;;;5019200;28;20317;-75
2021/08/26 06:52:29;;;;;;;10.43;4.70;;;14.80;99.90;;;;;;5012531;28;20197;-75
2021/08/26 06:54:55;;;;;;;12.33;3.70;;;14.80;99.90;;;;;;5007589;28;20763;-75
2021/08/26 06:57:21;;;;;;;7.07;3.90;;;14.90;99.90;;;;;;5006499;28;20898;-75
2021/08/26 06:59:46;;;;;;;10.17;3.70;;;14.90;99.90;;;;;;5010388;28;20469;-75
2021/08/26 07:02:12;;;;;;;7.07;3.40;;;14.90;99.90;;;;;;5007863;28;20177;-75
2021/08/26 07:04:38;;;;;;;7.80;3.20;;;14.90;99.90;;;;;;5012327;28;20217;-75
2021/08/26 07:07:03;;;;;;;7.77;3.70;;;14.90;99.90;;;;;;5006364;28;20182;-75
2021/08/26 07:09:29;;;;;;;12.43;3.20;;;15.00;99.90;;;;;;5008392;28;20533;-75
2021/08/26 07:11:54;;;;;;;14.20;3.27;;;15.00;99.90;;;;;;5006642;28;20265;-73
2021/08/26 07:14:20;;;;;;;11.37;3.47;;;15.10;99.90;;;;;;5009989;28;20190;-73
2021/08/26 07:16:46;;;;;;;8.67;3.70;;;15.20;99.90;;;;;;5011376;28;20192;-73
2021/08/26 07:19:12;;;;;;;16.07;3.67;;;15.20;99.90;;;;;;5009755;28;20213;-73
2021/08/26 07:21:38;;;;;;;8.93;3.40;;;15.30;99.90;;;;;;5010354;28;20426;-72
2021/08/26 07:24:04;;;;;;;7.30;3.00;;;15.30;99.90;;;;;;5008372;28;20194;-72
2021/08/26 07:26:30;;;;;;;9.10;4.57;;;15.30;99.90;;;;;;5008646;28;20441;-72
2021/08/26 07:28:55;;;;;;;10.43;3.00;;;15.30;99.90;;;;;;5007973;28;20190;-73
2021/08/26 07:31:22;;;;;;;7.80;2.53;;;15.30;99.90;;;;;;5009437;28;20186;-73
2021/08/26 07:33:48;;;;;;;6.93;2.73;;;15.40;99.90;;;;;;5009297;28;20187;-73
2021/08/26 07:36:14;;;;;;;14.53;3.63;;;15.40;99.90;;;;;;5011116;28;20433;-73
2021/08/26 07:38:39;;;;;;;8.97;2.83;;;15.50;99.90;;;;;;5006676;28;20515;-73
2021/08/26 07:41:05;;;;;;;8.47;2.70;;;15.50;99.90;;;;;;5005479;28;20627;-73
2021/08/26 07:43:31;;;;;;;7.13;2.70;;;15.50;99.90;;;;;;5008242;28;20193;-73
2021/08/26 07:45:58;;;;;;;9.67;2.90;;;15.50;99.90;;;;;;5007377;28;20631;-74
2021/08/26 07:48:24;;;;;;;7.77;3.10;;;15.60;99.90;;;;;;5006118;28;20473;-74
2021/08/26 07:50:53;;;;;;;7.80;4.83;;;15.70;99.90;;;;;;5009630;28;20437;-78
2021/08/26 07:53:20;;;;;;;6.70;2.80;;;15.80;99.90;;;;;;5003111;28;20441;-77
2021/08/26 07:55:46;;;;;;;9.93;2.30;;;15.90;99.90;;;;;;5006551;28;22625;-77
2021/08/26 07:58:11;;;;;;;10.40;3.00;;;16.00;99.90;;;;;;5006520;28;20472;-83
2021/08/26 08:00:37;;;;;;;7.20;2.10;;;16.10;99.90;;;;;;5001194;28;20429;-76
2021/08/26 08:03:03;;;;;;;4.97;2.30;;;16.20;99.90;;;;;;5005539;28;20187;-76
2021/08/26 08:05:29;;;;;;;11.47;3.07;;;16.30;99.90;;;;;;5005550;28;20189;-74
2021/08/26 08:07:55;;;;;;;7.33;2.57;;;16.30;99.90;;;;;;5007735;28;20437;-75
2021/08/26 08:10:21;;;;;;;7.20;2.40;;;16.40;99.90;;;;;;5010618;28;20187;-74
2021/08/26 08:12:46;;;;;;;5.13;2.37;;;16.50;99.90;;;;;;5010646;28;20187;-73
2021/08/26 08:15:12;;;;;;;3.23;2.07;;;16.50;99.90;;;;;;5007571;28;20612;-74
2021/08/26 08:17:38;;;;;;;6.07;2.47;;;16.50;99.90;;;;;;5004473;28;20183;-73
2021/08/26 08:20:08;;;;;;;13.87;2.37;;;16.50;99.90;;;;;;5006134;28;20421;-73
2021/08/26 08:22:34;;;;;;;9.93;1.90;;;16.50;99.90;;;;;;5000619;28;20430;-74
2021/08/26 08:25:00;;;;;;;10.03;1.90;;;16.50;99.90;;;;;;5006352;28;20789;-74
2021/08/26 08:27:25;;;;;;;7.93;2.23;;;16.50;99.90;;;;;;5010093;28;20429;-75
2021/08/26 08:29:51;;;;;;;4.10;1.80;;;16.50;99.90;;;;;;5005888;28;20301;-74
2021/08/26 08:32:17;;;;;;;9.00;2.50;;;16.50;99.90;;;;;;5002862;28;20190;-74
2021/08/26 08:34:42;;;;;;;6.27;1.93;;;16.60;99.90;;;;;;5011316;28;20193;-74
2021/08/26 08:37:08;;;;;;;5.53;2.90;;;16.70;99.90;;;;;;5006457;28;20183;-74
2021/08/26 08:39:34;;;;;;;7.10;2.37;;;16.70;99.90;;;;;;5010188;28;20235;-75
2021/08/26 08:41:59;;;;;;;1.40;1.30;;;16.80;99.90;;;;;;5011245;28;20221;-74
2021/08/26 08:44:25;;;;;;;2.13;1.30;;;16.80;99.90;;;;;;5007873;28;20451;-74
2021/08/26 08:46:55;;;;;;;6.20;2.17;;;16.80;99.90;;;;;;5007542;28;20194;-74
2021/08/26 08:49:22;;;;;;;5.73;1.60;;;16.70;99.90;;;;;;5012187;28;20179;-73
2021/08/26 08:51:52;;;;;;;3.20;1.47;;;16.70;99.90;;;;;;5011576;28;20437;-74
2021/08/26 08:54:18;;;;;;;3.73;1.47;;;16.70;99.90;;;;;;5009287;28;20456;-74
2021/08/26 08:56:44;;;;;;;5.33;1.40;;;16.60;99.90;;;;;;5009205;28;20479;-74
2021/08/26 08:59:09;;;;;;;7.33;1.73;;;16.50;99.90;;;;;;5008464;28;20222;-74
2021/08/26 09:01:35;;;;;;;2.93;1.53;;;16.50;99.90;;;;;;5006510;28;20517;-74
2021/08/26 09:04:01;;;;;;;4.87;1.50;;;16.60;99.90;;;;;;5006906;28;20172;-74
2021/08/26 09:06:40;;;;;;;4.07;1.77;;;16.50;99.90;;;;;;5011075;28;20190;-74
2021/08/26 09:09:07;;;;;;;4.60;1.40;;;16.50;99.90;;;;;;5011033;28;20537;-74
2021/08/26 09:11:33;;;;;;;4.60;1.30;;;16.50;99.90;;;;;;5010965;28;20780;-74
2021/08/26 09:14:13;;;;;;;3.47;1.90;;;16.40;99.90;;;;;;5010522;28;20429;-74
2021/08/26 09:16:41;;;;;;;7.00;1.77;;;16.40;99.90;;;;;;5007545;28;20891;-74
2021/08/26 09:19:25;;;;;;;3.03;1.20;;;16.40;99.90;;;;;;5009806;28;21134;-74
2021/08/26 09:21:51;;;;;;;2.53;0.90;;;16.50;99.90;;;;;;5010451;28;20456;-74
2021/08/26 09:24:17;;;;;;;6.53;1.87;;;16.60;99.90;;;;;;5010633;28;20440;-74
2021/08/26 09:26:51;;;;;;;4.50;1.50;;;16.70;99.90;;;;;;5009272;28;20443;-74
2021/08/26 09:29:18;;;;;;;6.10;1.63;;;16.70;99.90;;;;;;5009953;28;20432;-74
2021/08/26 09:31:45;;;;;;;3.67;2.30;;;16.70;99.90;;;;;;5005748;28;20449;-74
2021/08/26 09:34:15;;;;;;;3.73;1.23;;;16.70;99.90;;;;;;5007683;28;20519;-74
2021/08/26 09:36:47;;;;;;;2.53;1.47;;;16.80;99.90;;;;;;5012833;28;20483;-74
2021/08/26 09:39:15;;;;;;;4.20;1.10;;;16.80;99.90;;;;;;5009386;28;20449;-74
2021/08/26 09:41:46;;;;;;;3.67;1.30;;;17.00;99.90;;;;;;5012767;28;20424;-73
2021/08/26 09:44:14;;;;;;;2.33;1.20;;;17.20;99.90;;;;;;5009521;28;20550;-73
2021/08/26 09:46:41;;;;;;;2.23;1.90;;;17.30;99.90;;;;;;5006267;28;20797;-72
2021/08/26 09:49:11;;;;;;;3.50;1.17;;;17.60;99.90;;;;;;5008467;28;20466;-73
2021/08/26 09:51:38;;;;;;;1.80;0.90;;;17.80;99.90;;;;;;5006189;28;20427;-74
2021/08/26 09:54:24;;;;;;;9.10;1.63;;;18.10;99.90;;;;;;5007712;28;20519;-74
2021/08/26 09:56:50;;;;;;;3.40;1.87;;;18.10;99.90;;;;;;5008984;28;20536;-74
2021/08/26 09:59:16;;;;;;;1.83;1.37;;;18.20;99.90;;;;;;5009514;28;20640;-74
2021/08/26 10:01:41;;;;;;;2.27;1.30;;;18.20;99.90;;;;;;5007940;28;20211;-72
2021/08/26 10:04:27;;;;;;;6.00;1.20;;;18.30;99.90;;;;;;5005498;28;20692;-71
2021/08/26 10:06:54;;;;;;;3.37;1.10;;;18.40;99.90;;;;;;5008308;28;20171;-71
2021/08/26 10:09:20;;;;;;;3.07;1.30;;;18.40;99.90;;;;;;5007630;28;20430;-72
2021/08/26 10:11:46;;;;;;;4.67;1.77;;;18.50;99.90;;;;;;5010268;28;20433;-72
2021/08/26 10:14:12;;;;;;;2.87;0.90;;;18.50;99.90;;;;;;5009481;28;20751;-74
2021/08/26 10:16:41;;;;;;;3.80;1.00;;;18.70;99.90;;;;;;5013258;28;20474;-74
2021/08/26 10:19:07;;;;;;;1.80;0.80;;;18.60;99.90;;;;;;5007859;28;20218;-74
2021/08/26 10:21:33;;;;;;;2.03;0.93;;;18.60;99.90;;;;;;5006920;28;20515;-74
2021/08/26 10:24:00;;;;;;;2.87;1.20;;;18.90;99.90;;;;;;5001456;28;20425;-75
2021/08/26 10:26:28;;;;;;;4.20;1.23;;;19.10;99.90;;;;;;5000433;28;20483;-74
2021/08/26 10:28:54;;;;;;;4.40;1.00;;;19.30;99.90;;;;;;5009627;28;20426;-74
2021/08/26 10:31:39;;;;;;;1.80;1.03;;;19.20;99.90;;;;;;5006849;28;20479;-73
2021/08/26 10:34:14;;;;;;;1.97;0.93;;;19.00;99.90;;;;;;5008314;28;20464;-73
2021/08/26 10:37:19;;;;;;;10.00;0.90;;;19.10;99.90;;;;;;5005761;28;20847;-74
2021/08/26 10:39:45;;;;;;;2.10;0.90;;;18.90;99.90;;;;;;5005338;28;20464;-72
2021/08/26 10:42:16;;;;;;;4.87;0.70;;;18.90;99.90;;;;;;5008695;28;20460;-72
2021/08/26 10:45:05;;;;;;;3.67;0.97;;;19.00;99.90;;;;;;5005749;28;20440;-72
2021/08/26 10:47:56;;;;;;;2.67;0.77;;;19.20;99.90;;;;;;5004569;28;20437;-72
2021/08/26 10:50:45;;;;;;;4.33;1.27;;;19.40;99.90;;;;;;5003998;28;20441;-73
2021/08/26 10:53:28;;;;;;;2.70;1.00;;;19.60;99.90;;;;;;5009335;28;20429;-73
2021/08/26 10:55:56;;;;;;;2.80;0.90;;;19.70;99.90;;;;;;5000817;28;20484;-74
2021/08/26 10:58:25;;;;;;;1.87;0.90;;;19.90;99.90;;;;;;5001930;28;20571;-74
2021/08/26 11:01:00;;;;;;;2.90;0.90;;;20.10;99.90;;;;;;5004411;28;20753;-75
2021/08/26 11:03:35;;;;;;;3.20;1.30;;;20.20;99.90;;;;;;5001626;28;20823;-74
2021/08/26 11:06:16;;;;;;;3.03;1.10;;;20.30;99.90;;;;;;5003177;28;20432;-74
2021/08/26 11:09:05;;;;;;;1.00;0.77;;;20.30;99.90;;;;;;4999367;28;20496;-73
2021/08/26 11:11:31;;;;;;;4.70;1.10;;;20.50;99.90;;;;;;4998764;28;20488;-74
2021/08/26 11:14:03;;;;;;;3.80;1.33;;;20.40;99.90;;;;;;5003289;28;20496;-73
2021/08/26 11:16:28;;;;;;;1.70;0.80;;;20.00;99.90;;;;;;5001352;28;20274;-74
2021/08/26 11:18:56;;;;;;;2.73;0.70;;;19.60;99.90;;;;;;5005886;28;20468;-74
2021/08/26 11:21:40;;;;;;;1.63;1.10;;;19.20;99.90;;;;;;5004117;28;20186;-72
2021/08/26 11:24:07;;;;;;;1.50;0.60;;;18.70;99.90;;;;;;5000779;28;20433;-75
2021/08/26 11:26:52;;;;;;;2.30;0.90;;;18.40;99.90;;;;;;5002939;28;20845;-74
2021/08/26 11:29:18;;;;;;;2.13;0.80;;;18.10;99.90;;;;;;5004049;28;20437;-73
2021/08/26 11:31:53;;;;;;;2.47;0.90;;;17.90;99.90;;;;;;5006764;28;20532;-74
2021/08/26 11:34:22;;;;;;;2.73;0.73;;;18.10;99.90;;;;;;5003194;28;20244;-73
2021/08/26 11:37:06;;;;;;;4.27;0.80;;;18.70;99.90;;;;;;5015218;28;20784;-73
2021/08/26 11:39:49;;;;;;;2.63;0.80;;;18.90;99.90;;;;;;4998419;28;20796;-74
2021/08/26 11:42:18;;;;;;;1.37;0.80;;;18.80;99.90;;;;;;4997987;28;20429;-74
2021/08/26 11:45:02;;;;;;;1.77;0.73;;;18.60;99.90;;;;;;5002053;28;20869;-74
2021/08/26 11:47:31;;;;;;;1.37;0.83;;;18.60;99.90;;;;;;5004228;28;20762;-74
2021/08/26 11:50:11;;;;;;;1.40;0.87;;;18.40;99.90;;;;;;5002483;28;20495;-74
2021/08/26 11:52:38;;;;;;;2.73;0.97;;;18.40;99.90;;;;;;5001197;28;20878;-74
2021/08/26 11:55:04;;;;;;;1.23;1.07;;;18.50;99.90;;;;;;5001883;28;20532;-74
2021/08/26 11:57:29;;;;;;;1.53;0.77;;;18.70;99.90;;;;;;5004986;28;20527;-73
2021/08/26 12:00:04;;;;;;;2.80;0.80;;;18.90;99.90;;;;;;5002135;28;20460;-72
2021/08/26 12:02:31;;;;;;;3.03;0.97;;;19.30;99.90;;;;;;5004438;28;20706;-75
2021/08/26 12:04:59;;;;;;;1.30;0.87;;;19.70;99.90;;;;;;5007366;28;20505;-74
2021/08/26 12:07:32;;;;;;;2.80;0.77;;;19.70;99.90;;;;;;5008692;28;20924;-74
2021/08/26 12:10:22;;;;;;;2.53;0.70;;;19.50;99.90;;;;;;5010535;28;20417;-74
2021/08/26 12:12:58;;;;;;;0.70;0.60;;;19.40;99.90;;;;;;5006556;28;20422;-74
2021/08/26 12:15:37;;;;;;;2.17;0.93;;;19.30;99.90;;;;;;5009038;28;20433;-74
2021/08/26 12:18:17;;;;;;;2.60;0.73;;;19.10;99.90;;;;;;5011477;28;20449;-75
2021/08/26 12:20:45;;;;;;;3.07;0.60;;;19.00;99.90;;;;;;5012600;28;20420;-75
2021/08/26 12:23:17;;;;;;;0.90;0.80;;;19.10;99.90;;;;;;5007678;28;20571;-72
2021/08/26 12:25:43;;;;;;;2.30;0.70;;;19.60;99.90;;;;;;5010163;28;20425;-73
2021/08/26 12:28:10;;;;;;;1.90;0.63;;;19.90;99.90;;;;;;5013443;28;20426;-72
2021/08/26 12:30:42;;;;;;;2.90;0.90;;;19.90;99.90;;;;;;5006496;28;20426;-72
2021/08/26 12:33:19;;;;;;;1.67;0.63;;;19.80;99.90;;;;;;5010871;28;20437;-74
2021/08/26 12:35:56;;;;;;;2.27;0.70;;;19.60;99.90;;;;;;5010859;28;20471;-74
2021/08/26 12:38:38;;;;;;;1.23;0.80;;;19.40;99.90;;;;;;5010255;28;20449;-75
2021/08/26 12:41:15;;;;;;;1.07;0.70;;;19.10;99.90;;;;;;5011478;28;20413;-75
2021/08/26 12:43:51;;;;;;;1.93;0.73;;;19.10;99.90;;;;;;5010422;28;20808;-75
2021/08/26 12:46:29;;;;;;;1.03;0.70;;;19.10;99.90;;;;;;5003121;28;21073;-74
2021/08/26 12:49:08;;;;;;;1.07;0.77;;;19.30;99.90;;;;;;5010288;28;20440;-73
2021/08/26 12:51:50;;;;;;;1.90;0.70;;;19.30;99.90;;;;;;5010914;28;20478;-75